createdAt,value
2023-03-30T00:00:19.922Z,3.40
2023-03-30T00:02:49.451Z,3.10
2023-03-30T00:05:17.818Z,2.97
2023-03-30T00:07:45.607Z,3.13
2023-03-30T00:10:14.989Z,2.72
2023-03-30T00:12:43.714Z,2.90
2023-03-30T00:15:12.552Z,3.13
2023-03-30T00:17:39.973Z,2.90
2023-03-30T00:20:11.999Z,2.95
2023-03-30T00:22:39.851Z,3.17
2023-03-30T00:25:08.764Z,3.53
2023-03-30T00:27:36.809Z,3.00
2023-03-30T00:30:08.897Z,3.15
2023-03-30T00:32:35.798Z,3.50
2023-03-30T00:35:02.673Z,2.95
2023-03-30T00:37:29.738Z,2.80
2023-03-30T00:39:56.750Z,2.97
2023-03-30T00:42:23.824Z,3.55
2023-03-30T00:45:02.644Z,3.28
2023-03-30T00:47:29.962Z,3.38
2023-03-30T00:49:57.085Z,3.40
2023-03-30T00:52:25.122Z,3.40
2023-03-30T00:54:54.176Z,2.60
2023-03-30T00:57:23.661Z,3.17
2023-03-30T00:59:52.338Z,2.63
2023-03-30T01:02:23.246Z,2.90
2023-03-30T01:04:54.999Z,2.78
2023-03-30T01:07:24.315Z,2.45
2023-03-30T01:09:52.821Z,2.33
2023-03-30T01:12:20.627Z,2.47
2023-03-30T01:14:48.183Z,3.30
2023-03-30T01:17:37.092Z,2.85
2023-03-30T01:20:41.720Z,2.83
2023-03-30T01:23:18.770Z,2.92
2023-03-30T01:25:57.419Z,3.10
2023-03-30T01:29:01.926Z,2.50
2023-03-30T01:31:35.197Z,2.80
2023-03-30T01:34:20.216Z,2.78
2023-03-30T01:37:01.814Z,2.60
2023-03-30T01:39:48.821Z,3.20
2023-03-30T01:42:50.514Z,2.80
2023-03-30T01:45:32.250Z,3.15
2023-03-30T01:50:53.823Z,2.90
2023-03-30T01:53:32.969Z,3.50
2023-03-30T01:56:40.916Z,2.90
2023-03-30T01:59:18.195Z,2.65
2023-03-30T02:01:50.308Z,3.28
2023-03-30T02:04:22.661Z,3.35
2023-03-30T02:06:59.666Z,3.10
2023-03-30T02:09:27.711Z,3.55
2023-03-30T02:11:55.445Z,2.78
2023-03-30T02:14:27.335Z,2.97
2023-03-30T02:17:09.356Z,2.47
2023-03-30T02:19:37.908Z,2.85
2023-03-30T02:22:06.431Z,3.33
2023-03-30T02:24:35.262Z,3.17
2023-03-30T02:27:02.606Z,2.95
2023-03-30T02:29:29.924Z,2.92
2023-03-30T02:31:58.805Z,2.60
2023-03-30T02:34:28.626Z,2.85
2023-03-30T02:37:21.785Z,2.85
2023-03-30T02:39:57.351Z,2.58
2023-03-30T02:42:48.900Z,2.42
2023-03-30T02:45:18.546Z,2.70
2023-03-30T02:47:55.053Z,3.30
2023-03-30T02:50:24.120Z,2.83
2023-03-30T02:52:50.798Z,2.38
2023-03-30T02:55:26.957Z,2.70
2023-03-30T02:58:21.843Z,3.10
2023-03-30T03:00:59.334Z,3.45
2023-03-30T03:03:48.737Z,3.40
2023-03-30T03:06:16.293Z,2.70
2023-03-30T03:08:47.432Z,2.42
2023-03-30T03:11:14.244Z,2.60
2023-03-30T03:13:41.160Z,2.35
2023-03-30T03:16:13.052Z,2.20
2023-03-30T03:18:41.911Z,2.22
2023-03-30T03:21:10.604Z,2.20
2023-03-30T03:23:37.830Z,2.80
2023-03-30T03:26:05.934Z,2.00
2023-03-30T03:28:33.114Z,1.80
2023-03-30T03:31:00.116Z,2.30
2023-03-30T03:33:27.917Z,2.47
2023-03-30T03:35:55.417Z,2.65
2023-03-30T03:38:22.316Z,2.95
2023-03-30T03:40:53.577Z,2.60
2023-03-30T03:43:21.330Z,2.45
2023-03-30T03:45:49.102Z,3.05
2023-03-30T03:48:17.480Z,2.83
2023-03-30T03:50:44.780Z,2.88
2023-03-30T03:53:12.466Z,2.80
2023-03-30T03:55:39.157Z,3.55
2023-03-30T03:58:07.400Z,3.30
2023-03-30T04:00:34.721Z,3.25
2023-03-30T04:03:01.574Z,3.65
2023-03-30T04:05:28.322Z,3.85
2023-03-30T04:07:56.779Z,3.38
2023-03-30T04:10:24.150Z,3.78
2023-03-30T04:12:50.884Z,3.83
2023-03-30T04:15:17.694Z,3.78
2023-03-30T04:17:47.232Z,4.25
2023-03-30T04:20:15.346Z,4.53
2023-03-30T04:22:42.808Z,4.35
2023-03-30T04:25:11.661Z,4.88
2023-03-30T04:27:38.824Z,4.03
2023-03-30T04:30:06.217Z,4.65
2023-03-30T04:32:38.747Z,4.55
2023-03-30T04:35:06.618Z,4.63
2023-03-30T04:37:34.403Z,4.45
2023-03-30T04:40:05.851Z,4.72
2023-03-30T04:42:34.422Z,4.47
2023-03-30T04:45:01.287Z,4.63
2023-03-30T04:47:29.095Z,4.30
2023-03-30T04:49:56.091Z,5.20
2023-03-30T04:52:23.262Z,4.05
2023-03-30T04:54:50.042Z,4.57
2023-03-30T04:57:17.109Z,4.38
2023-03-30T04:59:44.597Z,4.88
2023-03-30T05:02:13.231Z,4.53
2023-03-30T05:04:40.106Z,4.93
2023-03-30T05:07:07.883Z,5.82
2023-03-30T05:09:34.641Z,4.78
2023-03-30T05:12:01.391Z,4.72
2023-03-30T05:14:28.100Z,4.22
2023-03-30T05:16:54.823Z,4.85
2023-03-30T05:19:21.820Z,5.70
2023-03-30T05:21:48.570Z,4.78
2023-03-30T05:24:15.648Z,4.70
2023-03-30T05:26:42.444Z,5.18
2023-03-30T05:29:10.037Z,5.05
2023-03-30T05:31:36.950Z,4.80
2023-03-30T05:34:03.795Z,5.18
2023-03-30T05:36:30.597Z,5.93
2023-03-30T05:38:57.331Z,5.00
2023-03-30T05:41:24.142Z,5.28
2023-03-30T05:43:51.111Z,4.93
2023-03-30T05:46:17.877Z,6.57
2023-03-30T05:48:44.695Z,6.38
2023-03-30T05:51:11.444Z,5.38
2023-03-30T05:53:38.178Z,5.72
2023-03-30T05:56:05.233Z,5.75
2023-03-30T05:58:31.977Z,6.10
2023-03-30T06:00:59.157Z,5.22
2023-03-30T06:03:25.960Z,4.88
2023-03-30T06:05:53.653Z,5.35
2023-03-30T06:08:22.582Z,6.25
2023-03-30T06:10:56.880Z,6.10
2023-03-30T06:13:23.857Z,5.70
2023-03-30T06:15:50.969Z,5.35
2023-03-30T06:18:17.798Z,5.68
2023-03-30T06:20:47.725Z,5.97
2023-03-30T06:23:15.006Z,5.78
2023-03-30T06:25:45.624Z,6.05
2023-03-30T06:28:12.638Z,5.68
2023-03-30T06:30:39.499Z,6.47
2023-03-30T06:33:06.249Z,4.82
2023-03-30T06:35:33.188Z,7.55
2023-03-30T06:37:59.970Z,6.20
2023-03-30T06:40:26.780Z,6.00
2023-03-30T06:42:53.537Z,6.22
2023-03-30T06:45:20.469Z,6.88
2023-03-30T06:47:47.761Z,6.32
2023-03-30T06:50:14.576Z,6.72
2023-03-30T06:52:41.339Z,5.65
2023-03-30T06:55:09.365Z,6.30
2023-03-30T06:57:36.445Z,5.55
2023-03-30T07:00:07.182Z,7.45
2023-03-30T07:02:33.914Z,6.97
2023-03-30T07:05:01.113Z,6.97
2023-03-30T07:07:28.050Z,5.63
2023-03-30T07:09:54.798Z,5.60
2023-03-30T07:12:21.600Z,6.45
2023-03-30T07:14:48.365Z,6.50
2023-03-30T07:17:16.585Z,5.80
2023-03-30T07:19:43.357Z,7.10
2023-03-30T07:22:10.090Z,7.22
2023-03-30T07:24:36.892Z,7.03
2023-03-30T07:27:03.680Z,6.60
2023-03-30T07:29:31.053Z,7.75
2023-03-30T07:31:58.248Z,7.82
2023-03-30T07:34:25.268Z,6.75
2023-03-30T07:36:52.481Z,7.85
2023-03-30T07:39:19.294Z,8.43
2023-03-30T07:41:46.135Z,7.55
2023-03-30T07:44:12.945Z,7.57
2023-03-30T07:46:39.816Z,7.60
2023-03-30T07:49:06.844Z,7.47
2023-03-30T07:51:34.504Z,6.97
2023-03-30T07:54:01.484Z,8.48
2023-03-30T07:56:28.231Z,7.88
2023-03-30T07:58:55.283Z,7.85
2023-03-30T08:01:22.057Z,6.75
2023-03-30T08:03:49.269Z,8.27
2023-03-30T08:06:16.249Z,6.68
2023-03-30T08:08:43.575Z,7.60
2023-03-30T08:11:11.173Z,8.10
2023-03-30T08:13:38.060Z,10.07
2023-03-30T08:16:05.175Z,8.40
2023-03-30T08:18:31.969Z,7.18
2023-03-30T08:20:58.680Z,8.13
2023-03-30T08:23:25.553Z,8.00
2023-03-30T08:25:55.953Z,8.00
2023-03-30T08:28:22.837Z,7.63
2023-03-30T08:30:50.291Z,7.97
2023-03-30T08:33:17.248Z,8.25
2023-03-30T08:35:48.092Z,9.30
2023-03-30T08:38:17.100Z,7.85
2023-03-30T08:40:48.921Z,8.95
2023-03-30T08:43:48.725Z,7.65
2023-03-30T08:46:18.641Z,8.27
2023-03-30T08:48:47.476Z,8.07
2023-03-30T08:51:27.762Z,8.27
2023-03-30T08:54:01.592Z,8.02
2023-03-30T08:56:57.455Z,8.38
2023-03-30T08:59:41.601Z,7.97
2023-03-30T09:02:26.490Z,8.43
2023-03-30T09:05:08.302Z,6.15
2023-03-30T09:07:58.846Z,8.13
2023-03-30T09:10:28.527Z,8.02
2023-03-30T09:12:59.247Z,7.88
2023-03-30T09:15:29.670Z,7.93
2023-03-30T09:18:38.162Z,8.77
2023-03-30T09:21:06.844Z,9.25
2023-03-30T09:23:34.292Z,8.93
2023-03-30T09:26:13.248Z,9.27
2023-03-30T09:28:54.799Z,8.10
2023-03-30T09:31:54.553Z,7.55
2023-03-30T09:34:50.274Z,8.70
2023-03-30T09:37:18.959Z,9.13
2023-03-30T09:39:47.153Z,7.07
2023-03-30T09:42:39.880Z,8.00
2023-03-30T09:45:15.641Z,6.38
2023-03-30T09:47:42.727Z,7.35
2023-03-30T09:50:12.383Z,7.82
2023-03-30T09:52:40.620Z,8.70
2023-03-30T09:55:18.534Z,7.57
2023-03-30T09:57:45.255Z,7.35
2023-03-30T10:00:33.381Z,7.28
2023-03-30T10:03:03.819Z,7.82
2023-03-30T10:05:36.101Z,6.75
2023-03-30T10:08:19.827Z,7.95
2023-03-30T10:10:54.236Z,6.95
2023-03-30T10:13:29.900Z,7.47
2023-03-30T10:15:57.407Z,7.05
2023-03-30T10:18:27.673Z,7.55
2023-03-30T10:21:05.686Z,6.45
2023-03-30T10:23:44.986Z,7.78
2023-03-30T10:26:19.186Z,7.47
2023-03-30T10:29:01.224Z,7.43
2023-03-30T10:31:28.490Z,6.97
2023-03-30T10:33:58.414Z,6.97
2023-03-30T10:36:31.798Z,6.78
2023-03-30T10:39:32.574Z,7.43
2023-03-30T10:42:05.507Z,6.45
2023-03-30T10:44:35.784Z,6.25
2023-03-30T10:47:41.435Z,6.68
2023-03-30T10:50:08.264Z,6.05
2023-03-30T10:52:58.997Z,7.50
2023-03-30T10:55:43.310Z,5.95
2023-03-30T10:58:12.514Z,5.70
2023-03-30T11:00:44.560Z,6.50
2023-03-30T11:03:23.025Z,5.95
2023-03-30T11:05:52.845Z,6.93
2023-03-30T11:08:28.943Z,6.10
2023-03-30T11:10:58.658Z,6.53
2023-03-30T11:13:30.469Z,6.07
2023-03-30T11:16:10.801Z,7.25
2023-03-30T11:18:43.454Z,6.43
2023-03-30T11:21:21.442Z,6.45
2023-03-30T11:23:56.191Z,6.63
2023-03-30T11:26:43.488Z,8.50
2023-03-30T11:29:27.040Z,8.18
2023-03-30T11:32:08.696Z,7.22
2023-03-30T11:37:20.240Z,8.70
2023-03-30T11:39:56.777Z,7.63
2023-03-30T11:42:30.369Z,8.65
2023-03-30T11:44:58.099Z,9.02
2023-03-30T11:47:46.341Z,7.35
2023-03-30T11:50:41.636Z,9.55
2023-03-30T11:53:42.736Z,8.15
2023-03-30T11:56:37.020Z,8.38
2023-03-30T11:59:25.210Z,8.20
2023-03-30T12:01:54.992Z,7.63
2023-03-30T12:04:29.302Z,9.45
2023-03-30T12:07:00.294Z,7.82
2023-03-30T12:10:06.090Z,9.25
2023-03-30T12:12:39.196Z,8.95
2023-03-30T12:15:27.095Z,8.15
2023-03-30T12:18:27.174Z,6.53
2023-03-30T12:21:13.287Z,7.75
2023-03-30T12:24:04.419Z,9.55
2023-03-30T12:26:34.229Z,7.45
2023-03-30T12:29:44.398Z,8.52
2023-03-30T12:31:51.146Z,7.70
2023-03-30T12:34:19.954Z,9.60
2023-03-30T12:36:55.058Z,7.63
2023-03-30T12:40:09.017Z,8.38
2023-03-30T12:42:39.625Z,8.52
2023-03-30T12:45:21.304Z,8.35
2023-03-30T12:50:50.444Z,8.32
2023-03-30T12:53:36.058Z,8.77
2023-03-30T12:56:13.840Z,9.10
2023-03-30T12:59:02.220Z,8.68
2023-03-30T13:01:34.803Z,8.57
2023-03-30T13:04:12.729Z,8.50
2023-03-30T13:07:02.570Z,7.53
2023-03-30T13:09:33.247Z,9.30
2023-03-30T13:12:00.006Z,7.53
2023-03-30T13:14:34.199Z,8.23
2023-03-30T13:17:01.095Z,7.85
2023-03-30T13:19:34.029Z,7.38
2023-03-30T13:22:13.162Z,8.40
2023-03-30T13:24:41.071Z,7.50
2023-03-30T13:27:14.024Z,8.05
2023-03-30T13:29:42.281Z,7.15
2023-03-30T13:32:53.185Z,7.03
2023-03-30T13:35:32.896Z,7.13
2023-03-30T13:38:13.691Z,7.43
2023-03-30T13:41:11.141Z,6.88
2023-03-30T13:43:47.314Z,7.63
2023-03-30T13:46:37.963Z,7.35
2023-03-30T13:49:22.020Z,7.28
2023-03-30T13:51:49.333Z,7.07
2023-03-30T13:54:28.395Z,7.75
2023-03-30T13:57:21.275Z,8.02
2023-03-30T14:00:17.969Z,7.88
2023-03-30T14:02:44.686Z,6.07
2023-03-30T14:05:24.248Z,7.10
2023-03-30T14:07:55.189Z,6.80
2023-03-30T14:10:22.649Z,6.80
2023-03-30T14:12:54.400Z,6.80
2023-03-30T14:15:35.003Z,6.95
2023-03-30T14:18:04.639Z,6.28
2023-03-30T14:20:45.424Z,6.05
2023-03-30T14:23:30.820Z,6.90
2023-03-30T14:26:04.078Z,6.10
2023-03-30T14:28:35.913Z,6.57
2023-03-30T14:33:35.097Z,7.30
2023-03-30T14:36:02.338Z,6.65
2023-03-30T14:38:30.163Z,5.75
2023-03-30T14:40:58.163Z,6.78
2023-03-30T14:43:28.857Z,6.32
2023-03-30T14:45:59.496Z,5.97
2023-03-30T14:48:30.859Z,6.47
2023-03-30T14:51:03.719Z,5.78
2023-03-30T14:53:31.410Z,6.32
2023-03-30T14:56:00.668Z,5.88
2023-03-30T14:58:31.137Z,5.93
2023-03-30T15:01:09.235Z,5.28
2023-03-30T15:03:37.901Z,5.82
2023-03-30T15:06:07.003Z,5.05
2023-03-30T15:08:39.370Z,6.18
2023-03-30T15:11:21.899Z,5.25
2023-03-30T15:13:53.126Z,5.90
2023-03-30T15:16:27.203Z,5.20
2023-03-30T15:18:59.739Z,6.15
2023-03-30T15:21:28.630Z,6.28
2023-03-30T15:23:58.511Z,5.85
2023-03-30T15:26:27.092Z,6.00
2023-03-30T15:28:57.995Z,6.55
2023-03-30T15:31:27.555Z,6.22
2023-03-30T15:33:57.652Z,6.60
2023-03-30T15:36:28.823Z,5.85
2023-03-30T15:38:58.985Z,7.05
2023-03-30T15:42:05.737Z,5.82
2023-03-30T15:44:38.239Z,5.78
2023-03-30T15:47:17.818Z,6.18
2023-03-30T15:49:49.079Z,4.32
2023-03-30T15:52:26.449Z,6.05
2023-03-30T15:54:55.486Z,5.47
2023-03-30T15:57:29.377Z,5.68
2023-03-30T15:59:57.613Z,5.22
2023-03-30T16:02:57.717Z,5.97
2023-03-30T16:05:29.813Z,5.05
2023-03-30T16:07:57.005Z,5.40
2023-03-30T16:10:30.113Z,5.63
2023-03-30T16:12:58.418Z,4.93
2023-03-30T16:15:28.187Z,4.63
2023-03-30T16:17:55.065Z,5.35
2023-03-30T16:20:24.816Z,5.38
2023-03-30T16:22:51.908Z,5.40
2023-03-30T16:25:23.248Z,4.50
2023-03-30T16:27:55.264Z,5.75
2023-03-30T16:30:36.144Z,5.15
2023-03-30T16:33:03.434Z,4.47
2023-03-30T16:35:30.815Z,5.78
2023-03-30T16:37:58.473Z,5.18
2023-03-30T16:40:33.647Z,4.97
2023-03-30T16:43:00.460Z,5.72
2023-03-30T16:45:28.310Z,5.50
2023-03-30T16:47:55.496Z,5.53
2023-03-30T16:50:40.627Z,4.68
2023-03-30T16:53:09.781Z,5.60
2023-03-30T16:55:37.619Z,4.85
2023-03-30T16:58:06.022Z,5.22
2023-03-30T17:00:39.577Z,5.30
2023-03-30T17:03:06.859Z,5.07
2023-03-30T17:05:33.579Z,4.65
2023-03-30T17:08:25.731Z,5.10
2023-03-30T17:10:54.893Z,5.03
2023-03-30T17:13:21.728Z,6.03
2023-03-30T17:15:48.411Z,5.40
2023-03-30T17:18:17.972Z,5.40
2023-03-30T17:20:49.408Z,5.57
2023-03-30T17:25:48.998Z,4.80
2023-03-30T17:28:21.198Z,5.07
2023-03-30T17:30:48.220Z,4.95
2023-03-30T17:33:15.261Z,5.13
2023-03-30T17:35:46.448Z,5.95
2023-03-30T17:38:13.986Z,6.20
2023-03-30T17:40:41.121Z,6.53
2023-03-30T17:43:08.788Z,5.20
2023-03-30T17:45:37.025Z,5.55
2023-03-30T17:48:05.878Z,5.47
2023-03-30T17:50:35.973Z,6.05
2023-03-30T17:53:03.396Z,4.97
2023-03-30T17:55:32.584Z,6.03
2023-03-30T17:58:00.174Z,5.25
2023-03-30T18:00:32.157Z,6.32
2023-03-30T18:03:00.103Z,6.00
2023-03-30T18:05:29.330Z,6.38
2023-03-30T18:07:56.250Z,5.82
2023-03-30T18:10:34.483Z,5.72
2023-03-30T18:13:01.387Z,6.28
2023-03-30T18:15:28.328Z,6.95
2023-03-30T18:17:56.408Z,5.43
2023-03-30T18:20:46.423Z,5.05
2023-03-30T18:23:13.096Z,6.13
2023-03-30T18:25:39.757Z,6.15
2023-03-30T18:28:15.143Z,6.78
2023-03-30T18:30:42.100Z,5.55
2023-03-30T18:33:08.928Z,6.90
2023-03-30T18:35:36.968Z,5.78
2023-03-30T18:38:05.004Z,5.93
2023-03-30T18:40:33.030Z,6.32
2023-03-30T18:43:00.426Z,7.20
2023-03-30T18:45:30.659Z,7.47
2023-03-30T18:47:58.642Z,5.43
2023-03-30T18:50:36.996Z,6.50
2023-03-30T18:53:08.909Z,6.65
2023-03-30T18:55:37.720Z,7.03
2023-03-30T18:58:14.764Z,7.53
2023-03-30T19:00:41.681Z,8.02
2023-03-30T19:03:11.658Z,6.95
2023-03-30T19:05:39.676Z,6.60
2023-03-30T19:08:07.142Z,6.50
2023-03-30T19:10:37.740Z,7.75
2023-03-30T19:13:05.272Z,7.63
2023-03-30T19:15:34.646Z,6.75
2023-03-30T19:18:02.813Z,7.45
2023-03-30T19:20:31.890Z,6.65
2023-03-30T19:22:58.778Z,7.65
2023-03-30T19:25:27.626Z,7.05
2023-03-30T19:28:03.149Z,7.15
2023-03-30T19:30:33.644Z,6.93
2023-03-30T19:33:04.330Z,6.95
2023-03-30T19:35:31.766Z,7.40
2023-03-30T19:37:59.045Z,6.78
2023-03-30T19:40:26.386Z,6.95
2023-03-30T19:42:53.275Z,6.97
2023-03-30T19:45:22.871Z,6.60
2023-03-30T19:47:50.746Z,7.65
2023-03-30T19:50:19.425Z,7.40
2023-03-30T19:52:48.825Z,7.13
2023-03-30T19:55:16.432Z,6.57
2023-03-30T19:57:43.296Z,6.97
2023-03-30T20:00:15.332Z,7.43
2023-03-30T20:02:44.815Z,6.28
2023-03-30T20:05:12.989Z,6.95
2023-03-30T20:07:40.957Z,6.55
2023-03-30T20:10:10.456Z,6.90
2023-03-30T20:12:37.877Z,6.65
2023-03-30T20:15:06.481Z,6.55
2023-03-30T20:17:34.090Z,6.93
2023-03-30T20:20:06.854Z,5.82
2023-03-30T20:22:36.135Z,6.72
2023-03-30T20:25:04.076Z,6.82
2023-03-30T20:27:30.969Z,7.22
2023-03-30T20:29:57.653Z,7.38
2023-03-30T20:32:24.355Z,7.55
2023-03-30T20:34:51.241Z,7.53
2023-03-30T20:37:18.037Z,6.80
2023-03-30T20:39:44.825Z,8.00
2023-03-30T20:42:11.550Z,7.13
2023-03-30T20:44:40.584Z,7.35
2023-03-30T20:47:09.788Z,7.05
2023-03-30T20:49:38.058Z,7.20
2023-03-30T20:52:05.730Z,6.80
2023-03-30T20:54:32.448Z,7.20
2023-03-30T20:56:59.256Z,7.20
2023-03-30T20:59:26.093Z,6.25
2023-03-30T21:01:54.751Z,6.85
2023-03-30T21:04:21.826Z,7.10
2023-03-30T21:06:49.488Z,6.72
2023-03-30T21:09:17.798Z,7.55
2023-03-30T21:11:44.753Z,7.35
2023-03-30T21:14:13.077Z,7.63
2023-03-30T21:16:42.060Z,6.68
2023-03-30T21:19:10.121Z,5.93
2023-03-30T21:21:37.819Z,5.60
2023-03-30T21:24:06.149Z,6.60
2023-03-30T21:26:32.897Z,6.70
2023-03-30T21:28:59.655Z,6.40
2023-03-30T21:31:26.634Z,6.50
2023-03-30T21:33:53.472Z,6.75
2023-03-30T21:36:20.358Z,6.63
2023-03-30T21:38:47.173Z,6.38
2023-03-30T21:41:16.788Z,5.82
2023-03-30T21:43:45.934Z,5.65
2023-03-30T21:46:21.027Z,6.45
2023-03-30T21:48:51.155Z,6.80
2023-03-30T21:51:27.331Z,6.63
2023-03-30T21:53:56.173Z,6.07
2023-03-30T21:56:25.134Z,6.70
2023-03-30T21:58:52.586Z,6.30
2023-03-30T22:01:20.617Z,7.38
2023-03-30T22:03:47.591Z,6.13
2023-03-30T22:06:16.214Z,6.65
2023-03-30T22:08:45.101Z,6.80
2023-03-30T22:11:20.982Z,7.25
2023-03-30T22:13:48.940Z,7.05
2023-03-30T22:16:36.702Z,6.80
2023-03-30T22:19:04.408Z,6.93
2023-03-30T22:21:34.337Z,7.10
2023-03-30T22:24:03.239Z,7.50
2023-03-30T22:26:29.958Z,6.68
2023-03-30T22:28:57.197Z,6.53
2023-03-30T22:31:24.374Z,6.78
2023-03-30T22:33:53.290Z,6.15
2023-03-30T22:36:23.733Z,5.60
2023-03-30T22:38:51.514Z,5.97
2023-03-30T22:41:23.596Z,6.03
2023-03-30T22:43:52.022Z,6.13
2023-03-30T22:46:18.911Z,6.05
2023-03-30T22:48:45.749Z,5.63
2023-03-30T22:51:14.461Z,4.97
2023-03-30T22:53:41.403Z,5.40
2023-03-30T22:56:08.423Z,6.07
2023-03-30T22:58:36.350Z,5.35
2023-03-30T23:01:06.966Z,5.20
2023-03-30T23:03:34.057Z,5.43
2023-03-30T23:06:01.130Z,5.47
2023-03-30T23:08:31.491Z,4.88
2023-03-30T23:11:04.348Z,5.78
2023-03-30T23:13:32.381Z,5.38
2023-03-30T23:15:59.612Z,5.25
2023-03-30T23:18:26.966Z,4.28
2023-03-30T23:20:53.904Z,5.93
2023-03-30T23:23:20.961Z,4.40
2023-03-30T23:25:52.254Z,4.97
2023-03-30T23:28:19.265Z,4.53
2023-03-30T23:30:46.528Z,6.07
2023-03-30T23:33:13.534Z,4.88
2023-03-30T23:35:47.206Z,4.93
2023-03-30T23:38:13.983Z,4.40
2023-03-30T23:40:40.940Z,5.30
2023-03-30T23:43:07.760Z,4.72
2023-03-30T23:45:34.479Z,4.40
2023-03-30T23:48:01.234Z,4.15
2023-03-30T23:50:29.062Z,4.50
2023-03-30T23:52:56.378Z,4.03
2023-03-30T23:55:24.482Z,4.75
2023-03-30T23:57:51.139Z,4.72
